Terminal Aerodrome Forecast
Issued by NWS

Home | Current Version | Previous Version | Text Only | Print | Product List | Glossary On
Versions: 1 2 3 4 5 6 7 8 9 10 11 12
000
FTUS46 KSGX 231733
TAFONT
TAF
KONT 231733Z 2318/2424 VRB04KT P6SM SKC WS015/03025KT
     FM232000 04010G20KT P6SM SKC
     FM240200 05006KT P6SM SKC WS015/03030KT
     FM240800 04020G30KT P6SM SKC
     FM242100 05010KT P6SM SKC=

USA.gov is the U.S. government's official web portal to all federal, state and local government web resources and services.